»·PEaware :: N12SA KSMX-KBFL

N12SA :: KSMX-KBFL

FLIGHT INFORMATION

Flight Status: Arrived
Operator: Privately registered:
United States
More flights under this callsign
Pilot: Bill H. (17578)
Aircraft: CESSNA 172 SKYHAWK
(C172)
More flights by this aircraft type
Origin: KSMX Santa Maria Pub/Capt Hancock
United States
Destination: KBFL Meadows
United States
More flights between these airports :: More routes between these airports
Route: +FLW
File this flight plan on PilotEdge
Remarks: XP11 CAT-5 RATING
Altitude:
(Current/Filed)
5,500ft
Speed:
(Current/Filed)
110kts
Departed: 10-Jan-18 07:07 PM
Arrived: 10-Jan-18 07:53 PM
Distance/Time
Traveled:
76nm/0:46
Distance/Time
To Go:
Arrived

Flight Plot

Page will automatically refresh every two minutes.


Map Options




Map Legend


Flown Route
Filed Route
Departure Airport
Arrival Airport
Navaid (VOR, NDB)
Fix

Horizontal Profiles

Position Reports

Time Latitude Longitude Heading Altitude Ground
Speed
10-Jan-18 19:02 34.896802 -120.445899 273 265ft 0kts
10-Jan-18 19:03 34.896802 -120.445899 273 265ft 0kts
10-Jan-18 19:04 34.896802 -120.445899 273 265ft 0kts
10-Jan-18 19:05 34.896802 -120.445899 273 265ft 0kts
10-Jan-18 19:06 34.896802 -120.445899 273 265ft 0kts
10-Jan-18 19:07 34.896481 -120.447482 206 265ft 10kts
10-Jan-18 19:08 34.893753 -120.444632 170 265ft 16kts
10-Jan-18 19:09 34.893200 -120.444689 265 265ft 0kts
10-Jan-18 19:10 34.893200 -120.444690 265 265ft 0kts
10-Jan-18 19:11 34.893200 -120.444689 265 265ft 0kts
10-Jan-18 19:12 34.892744 -120.445183 226 265ft 10kts
10-Jan-18 19:13 34.899276 -120.452622 318 603ft 60kts
10-Jan-18 19:14 34.909864 -120.444215 95 1298ft 104kts
10-Jan-18 19:15 34.899979 -120.409787 111 1936ft 112kts
10-Jan-18 19:16 34.917240 -120.384034 22 2038ft 114kts
10-Jan-18 19:17 34.945432 -120.367027 22 1991ft 116kts
10-Jan-18 19:18 34.974031 -120.347878 26 1896ft 117kts
10-Jan-18 19:19 35.001056 -120.325443 35 1882ft 116kts
10-Jan-18 19:20 35.015274 -120.290513 71 2029ft 123kts
10-Jan-18 19:21 35.018553 -120.249655 80 2185ft 115kts
10-Jan-18 19:22 35.018905 -120.213125 85 2856ft 107kts
10-Jan-18 19:23 35.021245 -120.177985 77 3508ft 102kts
10-Jan-18 19:24 35.022327 -120.138810 84 3770ft 125kts
10-Jan-18 19:25 35.030481 -120.097819 65 4014ft 119kts
10-Jan-18 19:26 35.041224 -120.064447 69 4737ft 97kts
10-Jan-18 19:27 35.041907 -120.031527 67 5366ft 97kts
10-Jan-18 19:28 35.049130 -119.995360 54 5455ft 124kts
10-Jan-18 19:29 35.063414 -119.956553 57 5424ft 122kts
10-Jan-18 19:30 35.076425 -119.919605 57 5429ft 118kts
10-Jan-18 19:31 35.089253 -119.882979 57 5429ft 118kts
10-Jan-18 19:32 35.102159 -119.846104 57 5431ft 119kts
10-Jan-18 19:33 35.114983 -119.809473 57 5431ft 120kts
10-Jan-18 19:34 35.128838 -119.772747 54 5426ft 119kts
10-Jan-18 19:35 35.143466 -119.736285 54 5432ft 120kts
10-Jan-18 19:36 35.158937 -119.699306 55 5444ft 124kts
10-Jan-18 19:37 35.175651 -119.661810 55 5455ft 128kts
10-Jan-18 19:38 35.193526 -119.624446 55 5466ft 130kts
10-Jan-18 19:39 35.212968 -119.586923 56 5476ft 132kts
10-Jan-18 19:40 35.233274 -119.550927 55 5490ft 132kts
10-Jan-18 19:41 35.253160 -119.519011 60 5210ft 102kts
10-Jan-18 19:42 35.267941 -119.490180 63 4472ft 108kts
10-Jan-18 19:43 35.279135 -119.455797 84 3850ft 110kts
10-Jan-18 19:44 35.274207 -119.419950 104 3486ft 105kts
10-Jan-18 19:45 35.280605 -119.386010 51 2946ft 118kts
10-Jan-18 19:46 35.301668 -119.356854 51 2673ft 113kts
10-Jan-18 19:47 35.322211 -119.328919 51 2424ft 113kts
10-Jan-18 19:48 35.341585 -119.297852 60 2544ft 114kts
10-Jan-18 19:49 35.354713 -119.261923 70 2470ft 117kts
10-Jan-18 19:50 35.366829 -119.224075 68 2163ft 123kts
10-Jan-18 19:51 35.379382 -119.187308 74 1704ft 114kts
10-Jan-18 19:52 35.387292 -119.149315 73 1544ft 117kts
10-Jan-18 19:53 35.396218 -119.112959 61 1452ft 116kts
10-Jan-18 19:54 35.398583 -119.078738 118 1409ft 110kts
10-Jan-18 19:55 35.382286 -119.047016 101 1441ft 108kts
10-Jan-18 19:56 35.402291 -119.023564 13 1314ft 97kts
10-Jan-18 19:57 35.422427 -119.042429 315 683ft 86kts
10-Jan-18 19:58 35.436730 -119.059660 315 497ft 44kts
10-Jan-18 19:59 35.437243 -119.058082 137 497ft 12kts
10-Jan-18 20:00 35.434046 -119.054210 135 497ft 17kts
10-Jan-18 20:01 35.431595 -119.051274 136 497ft 3kts
10-Jan-18 20:02 35.429389 -119.047719 46 497ft 14kts

Navigation Log

Ident Type
Flight plan parsing failed, navigation log unavailable